sensor_id;sensor_type;location;lat;lon;timestamp;P1;durP1;ratioP1;P2;durP2;ratioP2
6282;SDS011;3174;53.486;9.568;2022-07-29T00:02:13;1.77;;;1.00;;
6282;SDS011;3174;53.486;9.568;2022-07-29T00:04:42;2.87;;;0.90;;
6282;SDS011;3174;53.486;9.568;2022-07-29T00:07:10;1.50;;;1.03;;
6282;SDS011;3174;53.486;9.568;2022-07-29T00:09:39;1.17;;;1.07;;
6282;SDS011;3174;53.486;9.568;2022-07-29T00:12:17;1.40;;;0.90;;
6282;SDS011;3174;53.486;9.568;2022-07-29T00:14:52;1.83;;;1.10;;
6282;SDS011;3174;53.486;9.568;2022-07-29T00:17:20;2.87;;;1.03;;
6282;SDS011;3174;53.486;9.568;2022-07-29T00:19:49;3.23;;;1.00;;
6282;SDS011;3174;53.486;9.568;2022-07-29T00:22:18;1.83;;;1.00;;
6282;SDS011;3174;53.486;9.568;2022-07-29T00:24:47;1.90;;;1.03;;
6282;SDS011;3174;53.486;9.568;2022-07-29T00:27:15;2.07;;;1.20;;
6282;SDS011;3174;53.486;9.568;2022-07-29T00:29:43;1.93;;;1.30;;
6282;SDS011;3174;53.486;9.568;2022-07-29T00:32:11;2.13;;;1.00;;
6282;SDS011;3174;53.486;9.568;2022-07-29T00:34:39;1.27;;;1.00;;
6282;SDS011;3174;53.486;9.568;2022-07-29T00:37:26;0.80;;;0.80;;
6282;SDS011;3174;53.486;9.568;2022-07-29T00:39:55;2.80;;;1.13;;
6282;SDS011;3174;53.486;9.568;2022-07-29T00:42:23;2.23;;;1.10;;
6282;SDS011;3174;53.486;9.568;2022-07-29T00:44:51;1.50;;;1.10;;
6282;SDS011;3174;53.486;9.568;2022-07-29T00:47:18;1.00;;;0.93;;
6282;SDS011;3174;53.486;9.568;2022-07-29T00:49:47;1.87;;;1.00;;
6282;SDS011;3174;53.486;9.568;2022-07-29T00:52:15;3.07;;;1.10;;
6282;SDS011;3174;53.486;9.568;2022-07-29T00:54:44;1.13;;;0.90;;
6282;SDS011;3174;53.486;9.568;2022-07-29T00:57:12;1.20;;;0.97;;
6282;SDS011;3174;53.486;9.568;2022-07-29T00:59:40;1.10;;;1.00;;
6282;SDS011;3174;53.486;9.568;2022-07-29T01:02:08;0.90;;;0.90;;
6282;SDS011;3174;53.486;9.568;2022-07-29T01:04:36;2.57;;;1.40;;
6282;SDS011;3174;53.486;9.568;2022-07-29T01:07:04;1.70;;;1.43;;
6282;SDS011;3174;53.486;9.568;2022-07-29T01:09:33;1.70;;;1.10;;
6282;SDS011;3174;53.486;9.568;2022-07-29T01:12:14;1.10;;;1.00;;
6282;SDS011;3174;53.486;9.568;2022-07-29T01:14:44;2.73;;;1.10;;
6282;SDS011;3174;53.486;9.568;2022-07-29T01:17:14;2.07;;;1.10;;
6282;SDS011;3174;53.486;9.568;2022-07-29T01:19:47;1.40;;;1.17;;
6282;SDS011;3174;53.486;9.568;2022-07-29T01:22:24;0.70;;;0.70;;
6282;SDS011;3174;53.486;9.568;2022-07-29T01:25:05;3.23;;;1.10;;
6282;SDS011;3174;53.486;9.568;2022-07-29T01:27:44;1.83;;;1.10;;
6282;SDS011;3174;53.486;9.568;2022-07-29T01:30:21;1.57;;;1.00;;
6282;SDS011;3174;53.486;9.568;2022-07-29T01:32:51;1.83;;;1.27;;
6282;SDS011;3174;53.486;9.568;2022-07-29T01:35:23;1.77;;;0.87;;
6282;SDS011;3174;53.486;9.568;2022-07-29T01:37:55;3.97;;;1.27;;
6282;SDS011;3174;53.486;9.568;2022-07-29T01:40:31;1.17;;;0.97;;
6282;SDS011;3174;53.486;9.568;2022-07-29T01:43:05;2.23;;;1.20;;
6282;SDS011;3174;53.486;9.568;2022-07-29T01:45:38;1.47;;;0.83;;
6282;SDS011;3174;53.486;9.568;2022-07-29T01:48:10;2.87;;;1.30;;
6282;SDS011;3174;53.486;9.568;2022-07-29T01:50:41;1.33;;;1.00;;
6282;SDS011;3174;53.486;9.568;2022-07-29T01:53:13;1.13;;;1.03;;
6282;SDS011;3174;53.486;9.568;2022-07-29T01:55:44;1.10;;;1.00;;
6282;SDS011;3174;53.486;9.568;2022-07-29T01:58:13;1.30;;;1.10;;
6282;SDS011;3174;53.486;9.568;2022-07-29T02:00:46;1.20;;;1.10;;
6282;SDS011;3174;53.486;9.568;2022-07-29T02:03:15;1.43;;;0.80;;
6282;SDS011;3174;53.486;9.568;2022-07-29T02:05:45;3.47;;;1.30;;
6282;SDS011;3174;53.486;9.568;2022-07-29T02:08:14;2.90;;;1.17;;
6282;SDS011;3174;53.486;9.568;2022-07-29T02:10:44;1.03;;;0.93;;
6282;SDS011;3174;53.486;9.568;2022-07-29T02:13:13;1.50;;;1.20;;
6282;SDS011;3174;53.486;9.568;2022-07-29T02:15:43;1.23;;;0.77;;
6282;SDS011;3174;53.486;9.568;2022-07-29T02:18:15;1.37;;;0.90;;
6282;SDS011;3174;53.486;9.568;2022-07-29T02:20:45;2.30;;;1.10;;
6282;SDS011;3174;53.486;9.568;2022-07-29T02:23:17;1.00;;;0.90;;
6282;SDS011;3174;53.486;9.568;2022-07-29T02:25:46;2.10;;;1.10;;
6282;SDS011;3174;53.486;9.568;2022-07-29T02:28:17;1.03;;;0.87;;
6282;SDS011;3174;53.486;9.568;2022-07-29T02:30:46;2.80;;;1.07;;
6282;SDS011;3174;53.486;9.568;2022-07-29T02:33:17;1.03;;;0.90;;
6282;SDS011;3174;53.486;9.568;2022-07-29T02:35:46;1.40;;;1.10;;
6282;SDS011;3174;53.486;9.568;2022-07-29T02:38:15;1.17;;;1.00;;
6282;SDS011;3174;53.486;9.568;2022-07-29T02:41:02;2.00;;;1.30;;
6282;SDS011;3174;53.486;9.568;2022-07-29T02:43:33;1.30;;;0.90;;
6282;SDS011;3174;53.486;9.568;2022-07-29T02:46:02;4.17;;;1.10;;
6282;SDS011;3174;53.486;9.568;2022-07-29T02:48:55;2.83;;;1.13;;
6282;SDS011;3174;53.486;9.568;2022-07-29T02:51:27;1.70;;;1.20;;
6282;SDS011;3174;53.486;9.568;2022-07-29T02:54:10;2.60;;;1.20;;
6282;SDS011;3174;53.486;9.568;2022-07-29T02:56:39;1.57;;;1.07;;
6282;SDS011;3174;53.486;9.568;2022-07-29T02:59:08;1.37;;;1.17;;
6282;SDS011;3174;53.486;9.568;2022-07-29T03:01:39;2.53;;;1.27;;
6282;SDS011;3174;53.486;9.568;2022-07-29T03:04:09;1.67;;;1.10;;
6282;SDS011;3174;53.486;9.568;2022-07-29T03:06:40;1.67;;;1.03;;
6282;SDS011;3174;53.486;9.568;2022-07-29T03:09:08;1.27;;;1.03;;
6282;SDS011;3174;53.486;9.568;2022-07-29T03:11:39;1.50;;;1.20;;
6282;SDS011;3174;53.486;9.568;2022-07-29T03:14:16;1.50;;;1.20;;
6282;SDS011;3174;53.486;9.568;2022-07-29T03:16:46;1.93;;;1.27;;
6282;SDS011;3174;53.486;9.568;2022-07-29T03:19:15;5.60;;;1.30;;
6282;SDS011;3174;53.486;9.568;2022-07-29T03:21:43;2.23;;;1.30;;
6282;SDS011;3174;53.486;9.568;2022-07-29T03:24:23;1.83;;;1.20;;
6282;SDS011;3174;53.486;9.568;2022-07-29T03:26:54;3.57;;;1.20;;
6282;SDS011;3174;53.486;9.568;2022-07-29T03:29:22;3.67;;;1.20;;
6282;SDS011;3174;53.486;9.568;2022-07-29T03:31:59;3.20;;;1.40;;
6282;SDS011;3174;53.486;9.568;2022-07-29T03:34:34;1.10;;;1.00;;
6282;SDS011;3174;53.486;9.568;2022-07-29T03:37:03;1.30;;;1.00;;
6282;SDS011;3174;53.486;9.568;2022-07-29T03:39:33;1.27;;;1.10;;
6282;SDS011;3174;53.486;9.568;2022-07-29T03:42:04;2.50;;;1.30;;
6282;SDS011;3174;53.486;9.568;2022-07-29T03:44:33;2.90;;;1.27;;
6282;SDS011;3174;53.486;9.568;2022-07-29T03:47:02;1.57;;;1.30;;
6282;SDS011;3174;53.486;9.568;2022-07-29T03:49:31;3.03;;;1.30;;
6282;SDS011;3174;53.486;9.568;2022-07-29T03:52:01;3.17;;;1.13;;
6282;SDS011;3174;53.486;9.568;2022-07-29T03:54:30;3.60;;;1.10;;
6282;SDS011;3174;53.486;9.568;2022-07-29T03:56:58;1.80;;;1.27;;
6282;SDS011;3174;53.486;9.568;2022-07-29T03:59:27;1.73;;;1.30;;
6282;SDS011;3174;53.486;9.568;2022-07-29T04:01:55;1.60;;;1.30;;
6282;SDS011;3174;53.486;9.568;2022-07-29T04:04:24;2.50;;;1.23;;
6282;SDS011;3174;53.486;9.568;2022-07-29T04:06:55;2.40;;;1.17;;
6282;SDS011;3174;53.486;9.568;2022-07-29T04:09:23;2.70;;;1.20;;
6282;SDS011;3174;53.486;9.568;2022-07-29T04:11:51;2.23;;;1.30;;
6282;SDS011;3174;53.486;9.568;2022-07-29T04:14:29;2.17;;;1.37;;
6282;SDS011;3174;53.486;9.568;2022-07-29T04:16:58;3.97;;;1.40;;
6282;SDS011;3174;53.486;9.568;2022-07-29T04:19:26;1.77;;;1.20;;
6282;SDS011;3174;53.486;9.568;2022-07-29T04:21:55;3.47;;;1.30;;
6282;SDS011;3174;53.486;9.568;2022-07-29T04:24:23;2.23;;;1.23;;
6282;SDS011;3174;53.486;9.568;2022-07-29T04:26:52;1.40;;;1.23;;
6282;SDS011;3174;53.486;9.568;2022-07-29T04:29:20;2.40;;;1.40;;
6282;SDS011;3174;53.486;9.568;2022-07-29T04:31:48;2.07;;;1.10;;
6282;SDS011;3174;53.486;9.568;2022-07-29T04:34:16;2.80;;;1.50;;
6282;SDS011;3174;53.486;9.568;2022-07-29T04:36:45;3.43;;;1.30;;
6282;SDS011;3174;53.486;9.568;2022-07-29T04:39:14;1.97;;;1.37;;
6282;SDS011;3174;53.486;9.568;2022-07-29T04:41:48;2.77;;;1.37;;
6282;SDS011;3174;53.486;9.568;2022-07-29T04:44:21;2.13;;;1.23;;
6282;SDS011;3174;53.486;9.568;2022-07-29T04:46:54;2.30;;;1.33;;
6282;SDS011;3174;53.486;9.568;2022-07-29T04:49:23;1.70;;;1.37;;
6282;SDS011;3174;53.486;9.568;2022-07-29T04:51:51;3.37;;;1.60;;
6282;SDS011;3174;53.486;9.568;2022-07-29T04:54:20;2.33;;;1.30;;
6282;SDS011;3174;53.486;9.568;2022-07-29T04:56:48;2.70;;;1.20;;
6282;SDS011;3174;53.486;9.568;2022-07-29T04:59:16;2.37;;;1.40;;
6282;SDS011;3174;53.486;9.568;2022-07-29T05:01:44;3.10;;;1.33;;
6282;SDS011;3174;53.486;9.568;2022-07-29T05:04:12;2.17;;;1.13;;
6282;SDS011;3174;53.486;9.568;2022-07-29T05:06:40;3.10;;;1.40;;
6282;SDS011;3174;53.486;9.568;2022-07-29T05:09:08;3.83;;;1.50;;
6282;SDS011;3174;53.486;9.568;2022-07-29T05:11:38;4.60;;;1.60;;
6282;SDS011;3174;53.486;9.568;2022-07-29T05:14:06;2.10;;;1.50;;
6282;SDS011;3174;53.486;9.568;2022-07-29T05:16:33;3.07;;;1.27;;
6282;SDS011;3174;53.486;9.568;2022-07-29T05:19:01;2.00;;;1.40;;
6282;SDS011;3174;53.486;9.568;2022-07-29T05:21:29;3.20;;;1.60;;
6282;SDS011;3174;53.486;9.568;2022-07-29T05:23:57;1.77;;;1.30;;
6282;SDS011;3174;53.486;9.568;2022-07-29T05:26:25;1.40;;;1.30;;
6282;SDS011;3174;53.486;9.568;2022-07-29T05:28:55;1.57;;;1.37;;
6282;SDS011;3174;53.486;9.568;2022-07-29T05:31:23;3.20;;;1.40;;
6282;SDS011;3174;53.486;9.568;2022-07-29T05:33:51;2.03;;;1.37;;
6282;SDS011;3174;53.486;9.568;2022-07-29T05:36:19;4.60;;;1.33;;
6282;SDS011;3174;53.486;9.568;2022-07-29T05:38:47;2.07;;;1.30;;
6282;SDS011;3174;53.486;9.568;2022-07-29T05:41:15;3.07;;;1.40;;
6282;SDS011;3174;53.486;9.568;2022-07-29T05:43:43;1.93;;;1.40;;
6282;SDS011;3174;53.486;9.568;2022-07-29T05:46:12;3.37;;;1.47;;
6282;SDS011;3174;53.486;9.568;2022-07-29T05:48:41;2.93;;;1.50;;
6282;SDS011;3174;53.486;9.568;2022-07-29T05:51:09;3.10;;;1.37;;
6282;SDS011;3174;53.486;9.568;2022-07-29T05:53:37;2.60;;;1.60;;
6282;SDS011;3174;53.486;9.568;2022-07-29T05:56:06;2.10;;;1.23;;
6282;SDS011;3174;53.486;9.568;2022-07-29T05:58:34;2.23;;;1.33;;
6282;SDS011;3174;53.486;9.568;2022-07-29T06:01:02;1.90;;;1.50;;
6282;SDS011;3174;53.486;9.568;2022-07-29T06:03:32;2.70;;;1.17;;
6282;SDS011;3174;53.486;9.568;2022-07-29T06:06:00;2.77;;;1.60;;
6282;SDS011;3174;53.486;9.568;2022-07-29T06:08:28;4.43;;;1.40;;
6282;SDS011;3174;53.486;9.568;2022-07-29T06:10:56;1.97;;;1.50;;
6282;SDS011;3174;53.486;9.568;2022-07-29T06:13:24;2.77;;;1.50;;
6282;SDS011;3174;53.486;9.568;2022-07-29T06:15:52;3.53;;;1.70;;
6282;SDS011;3174;53.486;9.568;2022-07-29T06:18:20;2.93;;;1.50;;
6282;SDS011;3174;53.486;9.568;2022-07-29T06:20:51;3.23;;;1.40;;
6282;SDS011;3174;53.486;9.568;2022-07-29T06:23:20;2.63;;;1.50;;
6282;SDS011;3174;53.486;9.568;2022-07-29T06:25:48;3.63;;;1.50;;
6282;SDS011;3174;53.486;9.568;2022-07-29T06:28:16;3.60;;;1.50;;
6282;SDS011;3174;53.486;9.568;2022-07-29T06:30:44;3.30;;;1.60;;
6282;SDS011;3174;53.486;9.568;2022-07-29T06:33:15;3.00;;;1.70;;
6282;SDS011;3174;53.486;9.568;2022-07-29T06:35:44;2.33;;;1.57;;
6282;SDS011;3174;53.486;9.568;2022-07-29T06:38:20;2.00;;;1.40;;
6282;SDS011;3174;53.486;9.568;2022-07-29T06:40:59;3.47;;;1.80;;
6282;SDS011;3174;53.486;9.568;2022-07-29T06:43:26;1.87;;;1.30;;
6282;SDS011;3174;53.486;9.568;2022-07-29T06:45:58;2.30;;;1.30;;
6282;SDS011;3174;53.486;9.568;2022-07-29T06:48:27;2.30;;;1.43;;
6282;SDS011;3174;53.486;9.568;2022-07-29T06:50:56;3.80;;;1.53;;
6282;SDS011;3174;53.486;9.568;2022-07-29T06:53:25;2.97;;;1.27;;
6282;SDS011;3174;53.486;9.568;2022-07-29T06:55:53;6.90;;;1.67;;
6282;SDS011;3174;53.486;9.568;2022-07-29T06:58:21;5.30;;;1.50;;
6282;SDS011;3174;53.486;9.568;2022-07-29T07:00:49;3.40;;;1.73;;
6282;SDS011;3174;53.486;9.568;2022-07-29T07:03:17;2.37;;;1.50;;
6282;SDS011;3174;53.486;9.568;2022-07-29T07:05:46;6.37;;;1.80;;
6282;SDS011;3174;53.486;9.568;2022-07-29T07:08:14;3.30;;;1.50;;
6282;SDS011;3174;53.486;9.568;2022-07-29T07:10:44;3.10;;;1.50;;
6282;SDS011;3174;53.486;9.568;2022-07-29T07:13:13;2.40;;;1.40;;
6282;SDS011;3174;53.486;9.568;2022-07-29T07:15:43;2.90;;;1.67;;
6282;SDS011;3174;53.486;9.568;2022-07-29T07:18:14;1.80;;;1.50;;
6282;SDS011;3174;53.486;9.568;2022-07-29T07:20:42;3.87;;;1.40;;
6282;SDS011;3174;53.486;9.568;2022-07-29T07:23:11;3.30;;;1.60;;
6282;SDS011;3174;53.486;9.568;2022-07-29T07:25:39;3.23;;;1.83;;
6282;SDS011;3174;53.486;9.568;2022-07-29T07:28:08;3.77;;;1.50;;
6282;SDS011;3174;53.486;9.568;2022-07-29T07:30:36;1.90;;;1.50;;
6282;SDS011;3174;53.486;9.568;2022-07-29T07:33:04;2.23;;;1.70;;
6282;SDS011;3174;53.486;9.568;2022-07-29T07:35:32;2.53;;;1.77;;
6282;SDS011;3174;53.486;9.568;2022-07-29T07:38:00;3.30;;;1.50;;
6282;SDS011;3174;53.486;9.568;2022-07-29T07:40:28;4.27;;;1.43;;
6282;SDS011;3174;53.486;9.568;2022-07-29T07:42:56;6.73;;;1.60;;
6282;SDS011;3174;53.486;9.568;2022-07-29T07:45:26;5.00;;;1.73;;
6282;SDS011;3174;53.486;9.568;2022-07-29T07:47:54;2.20;;;1.70;;
6282;SDS011;3174;53.486;9.568;2022-07-29T07:50:22;4.13;;;1.53;;
6282;SDS011;3174;53.486;9.568;2022-07-29T07:52:51;4.70;;;2.30;;
6282;SDS011;3174;53.486;9.568;2022-07-29T07:55:21;9.13;;;1.60;;
6282;SDS011;3174;53.486;9.568;2022-07-29T07:57:49;4.33;;;1.70;;
6282;SDS011;3174;53.486;9.568;2022-07-29T08:00:17;3.53;;;1.87;;
6282;SDS011;3174;53.486;9.568;2022-07-29T08:02:50;2.83;;;2.23;;
6282;SDS011;3174;53.486;9.568;2022-07-29T08:05:18;3.30;;;1.90;;
6282;SDS011;3174;53.486;9.568;2022-07-29T08:07:46;4.43;;;2.30;;
6282;SDS011;3174;53.486;9.568;2022-07-29T08:10:15;3.00;;;1.73;;
6282;SDS011;3174;53.486;9.568;2022-07-29T08:13:04;3.53;;;1.50;;
6282;SDS011;3174;53.486;9.568;2022-07-29T08:15:33;2.60;;;1.67;;
6282;SDS011;3174;53.486;9.568;2022-07-29T08:18:02;2.40;;;1.67;;
6282;SDS011;3174;53.486;9.568;2022-07-29T08:20:34;2.73;;;1.60;;
6282;SDS011;3174;53.486;9.568;2022-07-29T08:23:02;3.23;;;1.50;;
6282;SDS011;3174;53.486;9.568;2022-07-29T08:25:32;4.40;;;1.70;;
6282;SDS011;3174;53.486;9.568;2022-07-29T08:28:05;3.37;;;1.90;;
6282;SDS011;3174;53.486;9.568;2022-07-29T08:30:33;3.90;;;1.80;;
6282;SDS011;3174;53.486;9.568;2022-07-29T08:33:03;3.90;;;1.83;;
6282;SDS011;3174;53.486;9.568;2022-07-29T08:35:31;4.33;;;1.73;;
6282;SDS011;3174;53.486;9.568;2022-07-29T08:38:01;2.80;;;1.90;;
6282;SDS011;3174;53.486;9.568;2022-07-29T08:40:30;1.97;;;1.50;;
6282;SDS011;3174;53.486;9.568;2022-07-29T08:42:58;5.23;;;1.83;;
6282;SDS011;3174;53.486;9.568;2022-07-29T08:45:27;4.57;;;1.80;;
6282;SDS011;3174;53.486;9.568;2022-07-29T08:47:55;2.93;;;1.60;;
6282;SDS011;3174;53.486;9.568;2022-07-29T08:50:25;3.00;;;1.60;;
6282;SDS011;3174;53.486;9.568;2022-07-29T08:52:53;4.00;;;1.93;;
6282;SDS011;3174;53.486;9.568;2022-07-29T08:55:25;3.27;;;1.80;;
6282;SDS011;3174;53.486;9.568;2022-07-29T08:57:53;4.03;;;1.57;;
6282;SDS011;3174;53.486;9.568;2022-07-29T09:00:22;3.50;;;1.70;;
6282;SDS011;3174;53.486;9.568;2022-07-29T09:02:54;6.70;;;2.00;;
6282;SDS011;3174;53.486;9.568;2022-07-29T09:05:26;3.33;;;1.50;;
6282;SDS011;3174;53.486;9.568;2022-07-29T09:07:55;3.30;;;1.60;;
6282;SDS011;3174;53.486;9.568;2022-07-29T09:10:23;2.40;;;1.50;;
6282;SDS011;3174;53.486;9.568;2022-07-29T09:12:51;3.13;;;1.80;;
6282;SDS011;3174;53.486;9.568;2022-07-29T09:15:19;3.50;;;1.90;;
6282;SDS011;3174;53.486;9.568;2022-07-29T09:17:48;4.23;;;1.70;;
6282;SDS011;3174;53.486;9.568;2022-07-29T09:20:17;3.07;;;1.67;;
6282;SDS011;3174;53.486;9.568;2022-07-29T09:22:47;2.57;;;1.63;;
6282;SDS011;3174;53.486;9.568;2022-07-29T09:25:31;2.83;;;2.07;;
6282;SDS011;3174;53.486;9.568;2022-07-29T09:28:05;2.97;;;1.77;;
6282;SDS011;3174;53.486;9.568;2022-07-29T09:30:34;5.07;;;1.80;;
6282;SDS011;3174;53.486;9.568;2022-07-29T09:33:02;2.87;;;1.67;;
6282;SDS011;3174;53.486;9.568;2022-07-29T09:35:30;2.83;;;1.70;;
6282;SDS011;3174;53.486;9.568;2022-07-29T09:38:10;2.47;;;1.70;;
6282;SDS011;3174;53.486;9.568;2022-07-29T09:40:39;5.07;;;1.90;;
6282;SDS011;3174;53.486;9.568;2022-07-29T09:43:10;2.03;;;1.57;;
6282;SDS011;3174;53.486;9.568;2022-07-29T09:45:39;2.43;;;1.60;;
6282;SDS011;3174;53.486;9.568;2022-07-29T09:48:14;1.87;;;1.43;;
6282;SDS011;3174;53.486;9.568;2022-07-29T09:50:44;3.00;;;1.80;;
6282;SDS011;3174;53.486;9.568;2022-07-29T09:53:18;5.47;;;1.93;;
6282;SDS011;3174;53.486;9.568;2022-07-29T09:55:57;3.50;;;1.70;;
6282;SDS011;3174;53.486;9.568;2022-07-29T09:58:26;4.27;;;1.60;;
6282;SDS011;3174;53.486;9.568;2022-07-29T10:00:54;3.42;;;1.60;;
6282;SDS011;3174;53.486;9.568;2022-07-29T10:03:23;4.10;;;1.50;;
6282;SDS011;3174;53.486;9.568;2022-07-29T10:06:07;5.15;;;1.63;;
6282;SDS011;3174;53.486;9.568;2022-07-29T10:08:37;2.75;;;1.45;;
6282;SDS011;3174;53.486;9.568;2022-07-29T10:11:10;2.25;;;1.52;;
6282;SDS011;3174;53.486;9.568;2022-07-29T10:13:40;2.40;;;1.50;;
6282;SDS011;3174;53.486;9.568;2022-07-29T10:16:08;2.47;;;1.58;;
6282;SDS011;3174;53.486;9.568;2022-07-29T10:18:39;2.05;;;1.63;;
6282;SDS011;3174;53.486;9.568;2022-07-29T10:21:07;2.03;;;1.55;;
6282;SDS011;3174;53.486;9.568;2022-07-29T10:23:49;3.90;;;1.70;;
6282;SDS011;3174;53.486;9.568;2022-07-29T10:26:17;3.03;;;1.88;;
6282;SDS011;3174;53.486;9.568;2022-07-29T10:28:45;4.07;;;1.83;;
6282;SDS011;3174;53.486;9.568;2022-07-29T10:31:15;2.33;;;1.88;;
6282;SDS011;3174;53.486;9.568;2022-07-29T10:33:55;1.98;;;1.60;;
6282;SDS011;3174;53.486;9.568;2022-07-29T10:36:35;3.22;;;1.83;;
6282;SDS011;3174;53.486;9.568;2022-07-29T10:39:14;2.78;;;1.73;;
6282;SDS011;3174;53.486;9.568;2022-07-29T10:42:02;9.25;;;1.80;;
6282;SDS011;3174;53.486;9.568;2022-07-29T10:44:39;3.17;;;1.67;;
6282;SDS011;3174;53.486;9.568;2022-07-29T10:47:07;4.68;;;2.13;;
6282;SDS011;3174;53.486;9.568;2022-07-29T10:49:36;2.10;;;1.73;;
6282;SDS011;3174;53.486;9.568;2022-07-29T10:52:06;2.00;;;1.73;;
6282;SDS011;3174;53.486;9.568;2022-07-29T10:54:38;3.83;;;1.70;;
6282;SDS011;3174;53.486;9.568;2022-07-29T10:57:13;6.75;;;1.75;;
6282;SDS011;3174;53.486;9.568;2022-07-29T10:59:42;2.75;;;1.70;;
6282;SDS011;3174;53.486;9.568;2022-07-29T11:05:11;3.38;;;1.80;;
6282;SDS011;3174;53.486;9.568;2022-07-29T11:14:18;4.95;;;1.60;;
6282;SDS011;3174;53.486;9.568;2022-07-29T11:16:59;3.00;;;1.45;;
6282;SDS011;3174;53.486;9.568;2022-07-29T11:19:32;3.95;;;1.58;;
6282;SDS011;3174;53.486;9.568;2022-07-29T11:22:01;3.33;;;1.52;;
6282;SDS011;3174;53.486;9.568;2022-07-29T11:24:31;2.65;;;1.30;;
6282;SDS011;3174;53.486;9.568;2022-07-29T11:27:07;3.55;;;1.50;;
6282;SDS011;3174;53.486;9.568;2022-07-29T11:29:40;2.40;;;1.45;;
6282;SDS011;3174;53.486;9.568;2022-07-29T11:32:16;3.63;;;1.67;;
6282;SDS011;3174;53.486;9.568;2022-07-29T11:34:49;2.42;;;1.40;;
6282;SDS011;3174;53.486;9.568;2022-07-29T11:37:20;5.82;;;2.03;;
6282;SDS011;3174;53.486;9.568;2022-07-29T11:42:47;2.30;;;1.45;;
6282;SDS011;3174;53.486;9.568;2022-07-29T11:45:26;4.82;;;1.60;;
6282;SDS011;3174;53.486;9.568;2022-07-29T11:48:15;2.72;;;1.35;;
6282;SDS011;3174;53.486;9.568;2022-07-29T11:50:56;4.30;;;1.58;;
6282;SDS011;3174;53.486;9.568;2022-07-29T11:53:24;2.40;;;1.60;;
6282;SDS011;3174;53.486;9.568;2022-07-29T11:55:57;1.75;;;1.40;;
6282;SDS011;3174;53.486;9.568;2022-07-29T11:58:28;3.35;;;1.60;;
6282;SDS011;3174;53.486;9.568;2022-07-29T12:00:58;5.05;;;1.58;;
6282;SDS011;3174;53.486;9.568;2022-07-29T12:03:30;2.00;;;1.30;;
6282;SDS011;3174;53.486;9.568;2022-07-29T12:06:19;2.63;;;1.48;;
6282;SDS011;3174;53.486;9.568;2022-07-29T12:08:47;2.80;;;1.50;;
6282;SDS011;3174;53.486;9.568;2022-07-29T12:11:16;3.63;;;1.52;;
6282;SDS011;3174;53.486;9.568;2022-07-29T12:13:46;3.17;;;1.70;;
6282;SDS011;3174;53.486;9.568;2022-07-29T12:16:19;1.95;;;1.60;;
6282;SDS011;3174;53.486;9.568;2022-07-29T12:18:54;2.17;;;1.30;;
6282;SDS011;3174;53.486;9.568;2022-07-29T12:21:28;2.25;;;1.42;;
6282;SDS011;3174;53.486;9.568;2022-07-29T12:23:56;2.55;;;1.35;;
6282;SDS011;3174;53.486;9.568;2022-07-29T12:26:34;3.63;;;1.60;;
6282;SDS011;3174;53.486;9.568;2022-07-29T12:29:03;3.13;;;1.48;;
6282;SDS011;3174;53.486;9.568;2022-07-29T12:31:41;2.80;;;1.40;;
6282;SDS011;3174;53.486;9.568;2022-07-29T12:34:11;2.38;;;1.50;;
6282;SDS011;3174;53.486;9.568;2022-07-29T12:36:40;1.75;;;1.33;;
6282;SDS011;3174;53.486;9.568;2022-07-29T12:39:09;4.18;;;1.50;;
6282;SDS011;3174;53.486;9.568;2022-07-29T12:41:37;2.30;;;1.30;;
6282;SDS011;3174;53.486;9.568;2022-07-29T12:44:06;4.10;;;1.27;;
6282;SDS011;3174;53.486;9.568;2022-07-29T12:46:34;4.63;;;2.00;;
6282;SDS011;3174;53.486;9.568;2022-07-29T12:49:03;2.25;;;1.30;;
6282;SDS011;3174;53.486;9.568;2022-07-29T12:51:32;1.70;;;1.25;;
6282;SDS011;3174;53.486;9.568;2022-07-29T12:54:03;3.78;;;1.52;;
6282;SDS011;3174;53.486;9.568;2022-07-29T12:56:33;3.85;;;1.55;;
6282;SDS011;3174;53.486;9.568;2022-07-29T12:59:14;4.15;;;1.35;;
6282;SDS011;3174;53.486;9.568;2022-07-29T13:01:43;3.50;;;1.70;;
6282;SDS011;3174;53.486;9.568;2022-07-29T13:04:25;2.35;;;1.50;;
6282;SDS011;3174;53.486;9.568;2022-07-29T13:07:00;3.25;;;1.42;;
6282;SDS011;3174;53.486;9.568;2022-07-29T13:09:38;2.72;;;1.70;;
6282;SDS011;3174;53.486;9.568;2022-07-29T13:12:08;3.10;;;1.85;;
6282;SDS011;3174;53.486;9.568;2022-07-29T13:14:37;5.50;;;1.63;;
6282;SDS011;3174;53.486;9.568;2022-07-29T13:17:07;2.88;;;1.80;;
6282;SDS011;3174;53.486;9.568;2022-07-29T13:19:37;3.97;;;1.50;;
6282;SDS011;3174;53.486;9.568;2022-07-29T13:22:08;3.67;;;1.40;;
6282;SDS011;3174;53.486;9.568;2022-07-29T13:24:46;4.35;;;1.50;;
6282;SDS011;3174;53.486;9.568;2022-07-29T13:27:15;1.45;;;1.20;;
6282;SDS011;3174;53.486;9.568;2022-07-29T13:29:43;7.13;;;1.48;;
6282;SDS011;3174;53.486;9.568;2022-07-29T13:32:12;2.72;;;1.40;;
6282;SDS011;3174;53.486;9.568;2022-07-29T13:34:42;2.05;;;1.33;;
6282;SDS011;3174;53.486;9.568;2022-07-29T13:37:10;4.03;;;1.67;;
6282;SDS011;3174;53.486;9.568;2022-07-29T13:39:38;4.80;;;1.60;;
6282;SDS011;3174;53.486;9.568;2022-07-29T13:42:06;2.50;;;1.58;;
6282;SDS011;3174;53.486;9.568;2022-07-29T13:44:36;1.92;;;1.40;;
6282;SDS011;3174;53.486;9.568;2022-07-29T13:47:04;3.70;;;1.63;;
6282;SDS011;3174;53.486;9.568;2022-07-29T13:49:33;3.17;;;1.52;;
6282;SDS011;3174;53.486;9.568;2022-07-29T13:52:02;4.00;;;1.40;;
6282;SDS011;3174;53.486;9.568;2022-07-29T13:54:33;1.98;;;1.40;;
6282;SDS011;3174;53.486;9.568;2022-07-29T13:57:08;3.30;;;1.60;;
6282;SDS011;3174;53.486;9.568;2022-07-29T13:59:37;3.45;;;1.60;;
6282;SDS011;3174;53.486;9.568;2022-07-29T14:02:05;2.95;;;1.60;;
6282;SDS011;3174;53.486;9.568;2022-07-29T14:04:33;2.45;;;1.30;;
6282;SDS011;3174;53.486;9.568;2022-07-29T14:07:06;2.13;;;1.45;;
6282;SDS011;3174;53.486;9.568;2022-07-29T14:09:35;3.25;;;1.77;;
6282;SDS011;3174;53.486;9.568;2022-07-29T14:12:07;2.65;;;1.45;;
6282;SDS011;3174;53.486;9.568;2022-07-29T14:14:35;2.60;;;1.60;;
6282;SDS011;3174;53.486;9.568;2022-07-29T14:17:03;2.03;;;1.40;;
6282;SDS011;3174;53.486;9.568;2022-07-29T14:19:33;2.35;;;1.50;;
6282;SDS011;3174;53.486;9.568;2022-07-29T14:22:06;2.40;;;1.30;;
6282;SDS011;3174;53.486;9.568;2022-07-29T14:24:36;2.10;;;1.30;;
6282;SDS011;3174;53.486;9.568;2022-07-29T14:27:11;2.20;;;1.73;;
6282;SDS011;3174;53.486;9.568;2022-07-29T14:29:44;3.45;;;1.40;;
6282;SDS011;3174;53.486;9.568;2022-07-29T14:32:17;3.97;;;1.60;;
6282;SDS011;3174;53.486;9.568;2022-07-29T14:34:47;2.85;;;1.33;;
6282;SDS011;3174;53.486;9.568;2022-07-29T14:37:16;3.08;;;1.60;;
6282;SDS011;3174;53.486;9.568;2022-07-29T14:39:45;4.45;;;1.50;;
6282;SDS011;3174;53.486;9.568;2022-07-29T14:42:13;1.60;;;1.50;;
6282;SDS011;3174;53.486;9.568;2022-07-29T14:44:41;2.65;;;1.90;;
6282;SDS011;3174;53.486;9.568;2022-07-29T14:47:10;3.45;;;1.55;;
6282;SDS011;3174;53.486;9.568;2022-07-29T14:49:37;2.97;;;1.50;;
6282;SDS011;3174;53.486;9.568;2022-07-29T14:52:05;3.38;;;1.70;;
6282;SDS011;3174;53.486;9.568;2022-07-29T14:54:35;3.22;;;1.90;;
6282;SDS011;3174;53.486;9.568;2022-07-29T14:57:03;2.75;;;1.50;;
6282;SDS011;3174;53.486;9.568;2022-07-29T14:59:31;2.17;;;1.35;;
6282;SDS011;3174;53.486;9.568;2022-07-29T15:01:59;5.85;;;1.77;;
6282;SDS011;3174;53.486;9.568;2022-07-29T15:04:28;3.58;;;2.25;;
6282;SDS011;3174;53.486;9.568;2022-07-29T15:06:56;3.15;;;2.10;;
6282;SDS011;3174;53.486;9.568;2022-07-29T15:09:24;2.88;;;1.80;;
6282;SDS011;3174;53.486;9.568;2022-07-29T15:11:53;5.03;;;2.10;;
6282;SDS011;3174;53.486;9.568;2022-07-29T15:14:22;4.72;;;2.20;;
6282;SDS011;3174;53.486;9.568;2022-07-29T15:16:50;5.38;;;2.00;;
6282;SDS011;3174;53.486;9.568;2022-07-29T15:19:18;5.80;;;2.30;;
6282;SDS011;3174;53.486;9.568;2022-07-29T15:21:46;3.35;;;1.98;;
6282;SDS011;3174;53.486;9.568;2022-07-29T15:24:14;4.25;;;2.03;;
6282;SDS011;3174;53.486;9.568;2022-07-29T15:26:43;3.85;;;2.40;;
6282;SDS011;3174;53.486;9.568;2022-07-29T15:29:12;3.05;;;2.05;;
6282;SDS011;3174;53.486;9.568;2022-07-29T15:31:41;4.45;;;2.25;;
6282;SDS011;3174;53.486;9.568;2022-07-29T15:34:09;1.98;;;1.70;;
6282;SDS011;3174;53.486;9.568;2022-07-29T15:36:37;3.60;;;2.33;;
6282;SDS011;3174;53.486;9.568;2022-07-29T15:39:21;6.40;;;5.28;;
6282;SDS011;3174;53.486;9.568;2022-07-29T15:41:49;4.18;;;3.63;;
6282;SDS011;3174;53.486;9.568;2022-07-29T15:44:19;5.07;;;3.75;;
6282;SDS011;3174;53.486;9.568;2022-07-29T15:46:48;7.15;;;2.40;;
6282;SDS011;3174;53.486;9.568;2022-07-29T15:49:32;2.53;;;2.05;;